createdAt,value
2023-05-18T00:00:32.833Z,2.60
2023-05-18T00:05:34.825Z,2.13
2023-05-18T00:10:36.447Z,2.07
2023-05-18T00:15:37.911Z,2.17
2023-05-18T00:20:39.415Z,2.43
2023-05-18T00:25:40.907Z,2.63
2023-05-18T00:30:42.350Z,2.80
2023-05-18T00:35:43.711Z,4.13
2023-05-18T00:40:45.154Z,2.60
2023-05-18T00:45:46.612Z,2.60
2023-05-18T00:50:48.097Z,2.67
2023-05-18T00:55:49.704Z,2.40
2023-05-18T01:00:51.591Z,2.60
2023-05-18T01:05:57.902Z,2.50
2023-05-18T01:11:07.948Z,2.60
2023-05-18T01:16:12.646Z,2.57
2023-05-18T01:26:24.760Z,2.40
2023-05-18T01:31:27.125Z,2.23
2023-05-18T01:36:28.618Z,2.80
2023-05-18T01:41:31.667Z,2.17
2023-05-18T01:46:33.251Z,3.03
2023-05-18T01:51:37.414Z,2.50
2023-05-18T01:56:39.723Z,3.03
2023-05-18T02:01:41.207Z,2.47
2023-05-18T02:06:42.857Z,2.87
2023-05-18T02:11:44.266Z,2.93
2023-05-18T02:16:47.125Z,2.37
2023-05-18T02:21:48.869Z,2.27
2023-05-18T02:26:51.164Z,2.40
2023-05-18T02:31:52.673Z,2.50
2023-05-18T02:36:58.078Z,2.73
2023-05-18T02:41:59.895Z,2.43
2023-05-18T02:47:01.646Z,1.90
2023-05-18T02:52:03.050Z,2.07
2023-05-18T02:57:04.657Z,2.00
2023-05-18T03:02:06.217Z,1.73
2023-05-18T03:07:08.018Z,1.90
2023-05-18T03:12:09.681Z,2.50
2023-05-18T03:17:11.276Z,2.63
2023-05-18T03:22:12.724Z,2.27
2023-05-18T03:27:17.380Z,2.40
2023-05-18T03:37:20.203Z,2.10
2023-05-18T03:42:21.663Z,2.80
2023-05-18T03:47:23.220Z,2.30
2023-05-18T03:52:24.667Z,2.33
2023-05-18T03:57:26.972Z,3.60
2023-05-18T04:02:29.577Z,2.27
2023-05-18T04:07:31.202Z,2.10
2023-05-18T04:12:32.545Z,2.50
2023-05-18T04:17:35.722Z,2.83
2023-05-18T04:22:39.353Z,2.63
2023-05-18T04:27:45.369Z,2.20
2023-05-18T04:32:47.225Z,2.57
2023-05-18T04:37:48.702Z,2.37
2023-05-18T04:42:50.500Z,2.43
2023-05-18T04:47:55.142Z,2.90
2023-05-18T04:58:00.768Z,2.47
2023-05-18T05:03:02.382Z,2.10
2023-05-18T05:08:06.104Z,2.73
2023-05-18T05:13:09.193Z,1.97
2023-05-18T05:18:10.829Z,1.83
2023-05-18T05:23:12.608Z,2.57
2023-05-18T05:28:14.090Z,2.33
2023-05-18T05:33:15.696Z,2.10
2023-05-18T05:38:17.154Z,1.77
2023-05-18T05:43:18.553Z,1.83
2023-05-18T05:48:20.163Z,2.08
2023-05-18T05:53:23.809Z,1.75
2023-05-18T06:03:29.357Z,1.98
2023-05-18T06:08:31.182Z,2.15
2023-05-18T06:13:32.893Z,2.42
2023-05-18T06:18:34.970Z,1.40
2023-05-18T06:23:37.829Z,1.90
2023-05-18T06:28:40.479Z,1.73
2023-05-18T06:33:43.079Z,1.55
2023-05-18T06:38:49.952Z,1.95
2023-05-18T06:43:51.518Z,1.90
2023-05-18T06:48:53.366Z,1.48
2023-05-18T06:53:54.786Z,1.63
2023-05-18T06:58:58.324Z,2.03
2023-05-18T07:04:04.119Z,1.52
2023-05-18T07:09:10.921Z,1.85
2023-05-18T07:14:13.970Z,2.17
2023-05-18T07:19:16.143Z,1.80
2023-05-18T07:24:17.597Z,1.17
2023-05-18T07:29:18.975Z,1.65
2023-05-18T07:34:20.551Z,1.50
2023-05-18T07:39:28.920Z,1.63
2023-05-18T07:44:33.039Z,1.38
2023-05-18T07:49:35.971Z,1.80
2023-05-18T07:54:38.958Z,1.88
2023-05-18T07:59:40.383Z,1.58
2023-05-18T08:04:41.947Z,2.10
2023-05-18T08:14:47.807Z,1.85
2023-05-18T08:19:49.276Z,2.30
2023-05-18T08:24:53.198Z,1.92
2023-05-18T08:29:54.827Z,1.65
2023-05-18T08:34:57.391Z,1.40
2023-05-18T08:39:59.850Z,2.05
2023-05-18T08:45:08.053Z,1.77
2023-05-18T08:50:16.519Z,1.60
2023-05-18T08:55:19.370Z,1.90
2023-05-18T09:00:24.672Z,2.08
2023-05-18T09:05:27.167Z,1.58
2023-05-18T09:10:29.106Z,2.30
2023-05-18T09:15:31.619Z,2.47
2023-05-18T09:20:33.426Z,2.05
2023-05-18T09:25:36.618Z,2.20
2023-05-18T09:30:42.268Z,1.05
2023-05-18T09:35:47.451Z,1.75
2023-05-18T09:40:50.126Z,2.03
2023-05-18T09:45:51.654Z,1.98
2023-05-18T09:50:53.165Z,1.48
2023-05-18T09:55:54.679Z,1.63
2023-05-18T10:01:00.594Z,1.80
2023-05-18T10:06:05.493Z,1.92
2023-05-18T10:11:07.447Z,2.10
2023-05-18T10:16:09.295Z,1.83
2023-05-18T10:21:12.480Z,1.60
2023-05-18T10:26:13.955Z,1.90
2023-05-18T10:31:16.149Z,2.10
2023-05-18T10:36:17.966Z,1.40
2023-05-18T10:41:21.533Z,1.58
2023-05-18T10:46:26.667Z,1.33
2023-05-18T10:51:29.774Z,1.88
2023-05-18T10:56:31.329Z,1.77
2023-05-18T11:01:33.923Z,1.60
2023-05-18T11:06:35.370Z,1.77
2023-05-18T11:11:56.401Z,1.55
2023-05-18T11:17:33.360Z,1.60
2023-05-18T11:22:41.567Z,2.03
2023-05-18T11:27:43.164Z,1.52
2023-05-18T11:32:51.031Z,1.80
2023-05-18T11:37:52.640Z,2.22
2023-05-18T11:43:00.071Z,1.63
2023-05-18T11:48:02.065Z,1.63
2023-05-18T11:53:03.623Z,1.80
2023-05-18T11:58:07.334Z,1.70
2023-05-18T12:03:09.090Z,1.60
2023-05-18T12:08:11.307Z,1.90
2023-05-18T12:13:13.656Z,1.55
2023-05-18T12:18:18.665Z,1.75
2023-05-18T12:23:21.064Z,1.65
2023-05-18T12:28:23.079Z,1.45
2023-05-18T12:33:24.531Z,1.50
2023-05-18T12:38:27.778Z,1.70
2023-05-18T12:43:33.234Z,1.88
2023-05-18T12:48:38.241Z,1.55
2023-05-18T12:53:41.447Z,2.13
2023-05-18T12:58:54.560Z,1.70
2023-05-18T13:03:57.951Z,1.65
2023-05-18T13:08:59.513Z,1.30
2023-05-18T13:14:02.148Z,1.88
2023-05-18T13:19:04.970Z,2.03
2023-05-18T13:24:06.668Z,2.70
2023-05-18T13:29:08.601Z,1.63
2023-05-18T13:34:10.049Z,2.22
2023-05-18T13:39:11.518Z,1.52
2023-05-18T13:44:14.965Z,2.13
2023-05-18T13:49:16.486Z,2.47
2023-05-18T13:54:17.903Z,3.95
2023-05-18T13:59:19.752Z,2.97
2023-05-18T14:04:21.780Z,2.70
2023-05-18T14:09:23.781Z,1.90
2023-05-18T14:14:25.394Z,2.13
2023-05-18T14:19:26.855Z,2.13
2023-05-18T14:24:28.514Z,1.95
2023-05-18T14:29:29.900Z,1.77
2023-05-18T14:34:31.316Z,2.35
2023-05-18T14:39:32.758Z,1.98
2023-05-18T14:44:34.109Z,1.85
2023-05-18T14:49:35.540Z,2.33
2023-05-18T14:54:36.925Z,1.80
2023-05-18T14:59:38.432Z,2.20
2023-05-18T15:04:39.843Z,1.85
2023-05-18T15:09:41.247Z,2.08
2023-05-18T15:14:42.823Z,2.67
2023-05-18T15:19:44.662Z,2.30
2023-05-18T15:24:47.941Z,2.10
2023-05-18T15:29:49.514Z,2.30
2023-05-18T15:34:52.623Z,3.35
2023-05-18T15:39:54.157Z,2.07
2023-05-18T15:44:55.707Z,2.33
2023-05-18T15:49:57.963Z,2.53
2023-05-18T15:54:59.771Z,2.30
2023-05-18T16:00:02.177Z,2.25
2023-05-18T16:05:04.214Z,2.40
2023-05-18T16:10:06.544Z,1.92
2023-05-18T16:15:08.252Z,2.28
2023-05-18T16:20:09.808Z,2.60
2023-05-18T16:25:11.239Z,2.47
2023-05-18T16:30:13.333Z,2.20
2023-05-18T16:35:15.003Z,2.00
2023-05-18T16:40:16.398Z,2.20
2023-05-18T16:45:18.238Z,1.92
2023-05-18T16:50:19.818Z,2.10
2023-05-18T16:55:21.909Z,1.95
2023-05-18T17:00:23.386Z,2.22
2023-05-18T17:05:26.761Z,4.32
2023-05-18T17:10:28.993Z,2.78
2023-05-18T17:15:30.979Z,2.55
2023-05-18T17:20:34.161Z,3.33
2023-05-18T17:25:36.425Z,2.53
2023-05-18T17:30:37.884Z,2.80
2023-05-18T17:35:39.334Z,3.08
2023-05-18T17:40:41.047Z,2.25
2023-05-18T17:45:42.486Z,2.55
2023-05-18T17:50:45.574Z,2.67
2023-05-18T17:55:49.223Z,2.17
2023-05-18T18:00:50.847Z,2.40
2023-05-18T18:05:53.339Z,1.85
2023-05-18T18:10:56.270Z,2.67
2023-05-18T18:15:58.087Z,2.00
2023-05-18T18:21:01.924Z,2.22
2023-05-18T18:31:07.550Z,2.22
2023-05-18T18:36:10.482Z,2.05
2023-05-18T18:41:13.089Z,1.70
2023-05-18T18:46:14.624Z,2.00
2023-05-18T18:51:16.241Z,1.95
2023-05-18T18:56:18.013Z,3.25
2023-05-18T19:01:19.499Z,2.50
2023-05-18T19:06:23.186Z,1.75
2023-05-18T19:11:24.693Z,2.67
2023-05-18T19:16:26.525Z,2.70
2023-05-18T19:21:29.078Z,2.40
2023-05-18T19:26:31.785Z,2.30
2023-05-18T19:31:34.528Z,2.30
2023-05-18T19:36:36.216Z,2.88
2023-05-18T19:41:38.099Z,2.38
2023-05-18T19:46:39.626Z,3.88
2023-05-18T19:51:41.043Z,3.35
2023-05-18T19:56:42.478Z,7.30
2023-05-18T20:01:44.009Z,7.07
2023-05-18T20:06:45.563Z,4.88
2023-05-18T20:11:50.530Z,4.20
2023-05-18T20:16:52.370Z,6.82
2023-05-18T20:21:54.004Z,6.78
2023-05-18T20:26:55.658Z,10.52
2023-05-18T20:31:57.299Z,12.60
2023-05-18T20:36:58.761Z,6.15
2023-05-18T20:42:00.239Z,3.22
2023-05-18T20:47:02.522Z,2.10
2023-05-18T20:52:04.047Z,2.35
2023-05-18T20:57:05.609Z,1.80
2023-05-18T21:02:07.595Z,2.55
2023-05-18T21:07:09.967Z,2.58
2023-05-18T21:12:11.541Z,2.28
2023-05-18T21:17:12.998Z,3.42
2023-05-18T21:22:14.857Z,2.45
2023-05-18T21:27:16.283Z,2.60
2023-05-18T21:32:18.185Z,2.70
2023-05-18T21:37:20.264Z,3.33
2023-05-18T21:42:21.709Z,3.65
2023-05-18T21:47:23.571Z,2.90
2023-05-18T21:52:25.111Z,3.65
2023-05-18T21:57:26.503Z,2.78
2023-05-18T22:02:27.958Z,2.65
2023-05-18T22:07:29.423Z,3.65
2023-05-18T22:12:31.714Z,3.05
2023-05-18T22:17:34.307Z,3.20
2023-05-18T22:22:35.783Z,3.38
2023-05-18T22:27:38.478Z,3.40
2023-05-18T22:32:39.949Z,3.40
2023-05-18T22:37:41.516Z,3.88
2023-05-18T22:42:43.038Z,4.47
2023-05-18T22:47:45.272Z,3.83
2023-05-18T22:52:46.810Z,3.55
2023-05-18T22:57:48.239Z,4.60
2023-05-18T23:02:49.745Z,4.22
2023-05-18T23:07:52.143Z,3.28
2023-05-18T23:12:55.641Z,4.38
2023-05-18T23:17:57.093Z,3.60
2023-05-18T23:22:58.622Z,4.03
2023-05-18T23:28:00.030Z,3.87
2023-05-18T23:33:01.673Z,3.97
2023-05-18T23:38:06.414Z,4.05
2023-05-18T23:43:07.965Z,3.80
2023-05-18T23:48:09.883Z,4.47
2023-05-18T23:53:12.422Z,4.20
2023-05-18T23:58:14.437Z,4.10
